Time;durP1;ratioP1;P1;durP2;ratioP2;P2;SDS_P1;SDS_P2;PMS_P1;PMS_P2;Temp;Humidity;BMP_temperature;BMP_pressure;BME280_temperature;BME280_humidity;BME280_pressure;Samples;Min_cycle;Max_cycle;Signal;HPM_P1;HPM_P2
2023/03/19 00:01:46;;;;;;;14.57;9.50;;;7.30;99.90;;;;;;5074851;28;20422;-75
2023/03/19 00:04:12;;;;;;;12.43;9.40;;;7.20;99.90;;;;;;5074971;28;20181;-75
2023/03/19 00:06:38;;;;;;;13.17;10.93;;;7.20;99.90;;;;;;5076527;28;20199;-81
2023/03/19 00:09:04;;;;;;;15.17;11.23;;;7.30;99.90;;;;;;5076194;28;20508;-75
2023/03/19 00:11:29;;;;;;;14.33;9.80;;;7.20;99.90;;;;;;5075008;28;20183;-75
2023/03/19 00:13:55;;;;;;;14.20;10.50;;;7.20;99.90;;;;;;5074683;28;20213;-75
2023/03/19 00:16:21;;;;;;;14.57;10.60;;;7.20;99.90;;;;;;5074951;28;20289;-75
2023/03/19 00:18:48;;;;;;;14.55;10.57;;;7.10;99.90;;;;;;5076042;28;20786;-80
2023/03/19 00:21:13;;;;;;;13.85;10.18;;;7.10;99.90;;;;;;5073782;28;20181;-81
2023/03/19 00:23:40;;;;;;;21.83;11.83;;;7.10;99.90;;;;;;5075854;28;20204;-75
2023/03/19 00:26:06;;;;;;;22.45;16.27;;;7.10;99.90;;;;;;5076106;28;20263;-75
2023/03/19 00:28:32;;;;;;;24.13;15.80;;;7.10;99.90;;;;;;5074559;28;20197;-75
2023/03/19 00:31:06;;;;;;;17.38;12.18;;;7.10;99.90;;;;;;5076166;28;20178;-75
2023/03/19 00:33:32;;;;;;;15.55;10.73;;;7.10;99.90;;;;;;5075684;28;20239;-75
2023/03/19 00:35:58;;;;;;;17.90;11.47;;;7.10;99.90;;;;;;5074569;28;20747;-75
2023/03/19 00:38:24;;;;;;;17.35;11.75;;;7.10;99.90;;;;;;5075670;28;20552;-76
2023/03/19 00:40:50;;;;;;;14.90;11.90;;;7.10;99.90;;;;;;5075779;28;20192;-75
2023/03/19 00:43:16;;;;;;;23.07;14.80;;;7.10;99.90;;;;;;5075583;28;20662;-80
2023/03/19 00:45:42;;;;;;;20.60;14.40;;;7.10;99.90;;;;;;5074177;28;20235;-80
2023/03/19 00:48:07;;;;;;;18.10;13.27;;;7.00;99.90;;;;;;5074167;28;20670;-80
2023/03/19 00:50:33;;;;;;;15.50;10.73;;;7.00;99.90;;;;;;5075257;28;20433;-79
2023/03/19 00:52:59;;;;;;;15.73;10.50;;;7.00;99.90;;;;;;5075272;28;20246;-80
2023/03/19 00:55:26;;;;;;;14.27;11.37;;;7.00;99.90;;;;;;5073822;28;20225;-80
2023/03/19 00:57:52;;;;;;;15.15;11.30;;;6.90;99.90;;;;;;5073919;28;20547;-75
2023/03/19 01:00:18;;;;;;;13.70;10.60;;;6.90;99.90;;;;;;5075513;28;20184;-75
2023/03/19 01:02:44;;;;;;;16.73;11.40;;;6.90;99.90;;;;;;5075079;28;20434;-81
2023/03/19 01:05:10;;;;;;;16.90;12.57;;;6.90;99.90;;;;;;5073842;28;20177;-74
2023/03/19 01:07:36;;;;;;;17.60;11.65;;;6.90;99.90;;;;;;5073691;28;20228;-80
2023/03/19 01:10:02;;;;;;;17.90;11.17;;;6.90;99.90;;;;;;5073712;28;20176;-75
2023/03/19 01:12:28;;;;;;;15.33;11.10;;;6.90;99.90;;;;;;5074846;28;20193;-75
2023/03/19 01:14:53;;;;;;;15.13;10.03;;;6.80;99.90;;;;;;5073385;28;20260;-80
2023/03/19 01:17:19;;;;;;;11.87;9.40;;;6.80;99.90;;;;;;5073645;28;20441;-75
2023/03/19 01:19:45;;;;;;;10.30;9.20;;;6.80;99.90;;;;;;5074829;28;20627;-75
2023/03/19 01:22:11;;;;;;;14.57;9.93;;;6.70;99.90;;;;;;5075047;28;20224;-81
2023/03/19 01:24:37;;;;;;;14.05;9.40;;;6.60;99.90;;;;;;5074599;28;20328;-80
2023/03/19 01:27:03;;;;;;;11.00;8.83;;;6.70;99.90;;;;;;5073539;28;20287;-75
2023/03/19 01:29:31;;;;;;;11.77;9.80;;;6.60;99.90;;;;;;5073391;28;20185;-80
2023/03/19 01:31:57;;;;;;;11.18;8.60;;;6.60;99.90;;;;;;5073209;28;20196;-81
2023/03/19 01:34:26;;;;;;;13.63;9.20;;;6.60;99.90;;;;;;5074518;28;20174;-80
2023/03/19 01:36:51;;;;;;;10.40;9.30;;;6.60;99.90;;;;;;5074868;28;20685;-75
2023/03/19 01:39:17;;;;;;;14.57;10.00;;;6.70;99.90;;;;;;5074403;28;20238;-79
2023/03/19 01:41:43;;;;;;;13.97;10.30;;;6.70;99.90;;;;;;5073116;28;20200;-75
2023/03/19 01:44:32;;;;;;;13.40;9.60;;;6.70;99.90;;;;;;5073041;28;20181;-81
2023/03/19 01:47:03;;;;;;;13.48;9.98;;;6.70;99.90;;;;;;5074999;28;20984;-81
2023/03/19 01:49:30;;;;;;;12.93;10.32;;;6.70;99.90;;;;;;5074443;28;20188;-75
2023/03/19 01:51:58;;;;;;;11.23;9.50;;;6.70;99.90;;;;;;5074494;28;20193;-75
2023/03/19 01:54:26;;;;;;;14.48;9.55;;;6.60;99.90;;;;;;5074198;28;20185;-75
2023/03/19 01:57:02;;;;;;;10.82;9.38;;;6.60;99.90;;;;;;5074449;28;20213;-75
2023/03/19 01:59:38;;;;;;;14.20;8.98;;;6.60;99.90;;;;;;5074205;28;20165;-75
2023/03/19 02:02:10;;;;;;;11.02;8.77;;;6.60;99.90;;;;;;5074637;28;20684;-75
2023/03/19 02:04:39;;;;;;;10.55;7.97;;;6.60;99.90;;;;;;5074106;28;20165;-75
2023/03/19 02:07:06;;;;;;;11.98;9.07;;;6.50;99.90;;;;;;5074459;28;20185;-75
2023/03/19 02:09:32;;;;;;;11.50;9.20;;;6.50;99.90;;;;;;5074048;28;20173;-80
2023/03/19 02:12:00;;;;;;;10.68;8.45;;;6.50;99.90;;;;;;5072770;28;20250;-80
2023/03/19 02:14:26;;;;;;;13.30;8.77;;;6.40;99.90;;;;;;5072556;28;20188;-81
2023/03/19 02:16:53;;;;;;;13.18;9.50;;;6.30;99.90;;;;;;5074230;28;20213;-75
2023/03/19 02:19:31;;;;;;;13.15;9.30;;;6.30;99.90;;;;;;5073855;28;20642;-75
2023/03/19 02:21:58;;;;;;;17.92;9.20;;;6.20;99.90;;;;;;5072760;28;20204;-81
2023/03/19 02:24:44;;;;;;;17.50;9.57;;;6.20;99.90;;;;;;5072536;28;20589;-80
2023/03/19 02:27:10;;;;;;;14.18;10.15;;;6.10;99.90;;;;;;5074219;28;20650;-75
2023/03/19 02:29:37;;;;;;;13.23;8.93;;;6.10;99.90;;;;;;5073785;28;20173;-75
2023/03/19 02:32:03;;;;;;;12.02;9.25;;;6.10;99.90;;;;;;5072597;28;20563;-75
2023/03/19 02:34:35;;;;;;;12.88;8.85;;;6.00;99.90;;;;;;5073625;28;20178;-75
2023/03/19 02:37:05;;;;;;;14.57;8.65;;;6.00;99.90;;;;;;5072532;28;20197;-75
2023/03/19 02:39:58;;;;;;;13.45;8.75;;;5.90;99.90;;;;;;5073766;28;20236;-81
2023/03/19 02:42:26;;;;;;;12.73;8.23;;;5.90;99.90;;;;;;5070220;28;20220;-75
2023/03/19 02:44:52;;;;;;;12.57;8.68;;;5.90;99.90;;;;;;5078825;28;20177;-80
2023/03/19 02:47:18;;;;;;;13.63;9.10;;;5.90;99.90;;;;;;5078958;28;20251;-75
2023/03/19 02:49:44;;;;;;;16.87;9.10;;;5.90;99.90;;;;;;5080223;28;20272;-77
2023/03/19 02:52:11;;;;;;;12.43;8.83;;;5.90;99.90;;;;;;5078776;28;20216;-81
2023/03/19 02:54:36;;;;;;;10.07;8.18;;;5.90;99.90;;;;;;5080059;28;20176;-81
2023/03/19 02:57:02;;;;;;;11.13;7.87;;;5.90;99.90;;;;;;5080617;28;20197;-76
2023/03/19 02:59:28;;;;;;;12.23;8.40;;;5.90;99.90;;;;;;5078861;28;20180;-74
2023/03/19 03:01:54;;;;;;;13.27;9.63;;;5.80;99.90;;;;;;5078559;28;20666;-80
2023/03/19 03:04:20;;;;;;;18.43;11.23;;;5.70;99.90;;;;;;5080111;28;20906;-75
2023/03/19 03:06:46;;;;;;;13.30;9.95;;;5.70;99.90;;;;;;5080312;28;20452;-75
2023/03/19 03:09:13;;;;;;;18.20;10.90;;;5.60;99.90;;;;;;5079044;28;20181;-80
2023/03/19 03:11:42;;;;;;;13.98;10.55;;;5.70;99.90;;;;;;5080259;28;20427;-80
2023/03/19 03:14:07;;;;;;;13.05;10.65;;;5.70;99.90;;;;;;5078740;28;20181;-75
2023/03/19 03:16:33;;;;;;;19.60;11.27;;;5.70;99.90;;;;;;5078474;28;20236;-75
2023/03/19 03:18:59;;;;;;;14.53;9.73;;;5.70;99.90;;;;;;5078658;28;20582;-79
2023/03/19 03:21:25;;;;;;;11.17;9.87;;;5.70;99.90;;;;;;5080270;28;20180;-81
2023/03/19 03:23:51;;;;;;;14.48;10.57;;;5.70;99.90;;;;;;5079836;28;20196;-80
2023/03/19 03:26:17;;;;;;;15.20;9.85;;;5.60;99.90;;;;;;5078460;28;20234;-81
2023/03/19 03:28:42;;;;;;;11.87;9.90;;;5.60;99.90;;;;;;5078564;28;20254;-79
2023/03/19 03:31:08;;;;;;;15.80;11.60;;;5.60;99.90;;;;;;5080206;28;20469;-75
2023/03/19 03:33:35;;;;;;;16.57;11.77;;;5.60;99.90;;;;;;5078430;28;20205;-75
2023/03/19 03:36:01;;;;;;;36.80;23.50;;;5.60;99.90;;;;;;5079617;28;20251;-75
2023/03/19 03:38:27;;;;;;;125.03;58.00;;;5.60;99.90;;;;;;5078463;28;20197;-74
2023/03/19 03:40:53;;;;;;;71.25;42.92;;;5.60;99.90;;;;;;5078571;28;20655;-75
2023/03/19 03:43:20;;;;;;;45.50;28.00;;;5.60;99.90;;;;;;5078364;28;20207;-75
2023/03/19 03:45:47;;;;;;;34.72;24.13;;;5.60;99.90;;;;;;5078446;28;20266;-74
2023/03/19 03:48:14;;;;;;;21.30;16.30;;;5.70;99.90;;;;;;5079631;28;20235;-75
2023/03/19 03:50:40;;;;;;;19.45;14.50;;;5.60;99.90;;;;;;5079958;28;20208;-81
2023/03/19 03:53:07;;;;;;;13.70;10.57;;;5.60;99.90;;;;;;5078354;28;20201;-81
2023/03/19 03:55:33;;;;;;;14.93;12.65;;;5.60;99.90;;;;;;5077375;28;20501;-74
2023/03/19 03:57:59;;;;;;;11.80;10.40;;;5.60;99.90;;;;;;5076383;28;20193;-80
2023/03/19 04:00:25;;;;;;;16.55;11.05;;;5.60;99.90;;;;;;5075068;28;20188;-80
2023/03/19 04:02:51;;;;;;;16.40;11.87;;;5.50;99.90;;;;;;5076332;28;20201;-74
2023/03/19 04:05:17;;;;;;;14.13;11.30;;;5.50;99.90;;;;;;5076603;28;20417;-75
2023/03/19 04:07:43;;;;;;;14.75;10.35;;;5.40;99.90;;;;;;5074886;28;20197;-76
2023/03/19 04:10:11;;;;;;;16.35;11.70;;;5.40;99.90;;;;;;5074960;28;20540;-74
2023/03/19 04:12:38;;;;;;;14.35;10.70;;;5.50;99.90;;;;;;5074700;28;20201;-79
2023/03/19 04:15:06;;;;;;;16.02;11.65;;;5.40;99.90;;;;;;5074648;28;20236;-80
2023/03/19 04:17:32;;;;;;;15.10;12.07;;;5.40;99.90;;;;;;5074701;28;20201;-75
2023/03/19 04:19:58;;;;;;;14.27;10.00;;;5.40;99.90;;;;;;5075944;28;20222;-76
2023/03/19 04:22:24;;;;;;;15.40;11.13;;;5.40;99.90;;;;;;5075951;28;20240;-81
2023/03/19 04:24:50;;;;;;;16.83;11.30;;;5.40;99.90;;;;;;5075813;28;20169;-74
2023/03/19 04:27:15;;;;;;;18.33;11.63;;;5.40;99.90;;;;;;5074535;28;20445;-74
2023/03/19 04:29:41;;;;;;;15.50;11.30;;;5.30;99.90;;;;;;5075845;28;20398;-77
2023/03/19 04:32:07;;;;;;;16.43;10.90;;;5.30;99.90;;;;;;5076231;28;20228;-74
2023/03/19 04:34:33;;;;;;;13.30;10.93;;;5.40;99.90;;;;;;5075675;28;20613;-75
2023/03/19 04:36:59;;;;;;;16.42;11.40;;;5.40;99.90;;;;;;5076192;28;20942;-75
2023/03/19 04:39:25;;;;;;;12.57;9.97;;;5.40;99.90;;;;;;5074435;28;20181;-75
2023/03/19 04:41:51;;;;;;;17.03;9.77;;;5.40;99.90;;;;;;5075892;28;20499;-75
2023/03/19 04:44:17;;;;;;;13.73;11.10;;;5.30;99.90;;;;;;5075587;28;20248;-75
2023/03/19 04:46:46;;;;;;;16.63;10.95;;;5.40;99.90;;;;;;5075784;28;20183;-75
2023/03/19 04:49:12;;;;;;;12.88;10.88;;;5.40;99.90;;;;;;5075512;28;20191;-81
2023/03/19 04:51:38;;;;;;;17.88;11.80;;;5.50;99.90;;;;;;5075143;28;20203;-81
2023/03/19 04:54:04;;;;;;;17.73;13.00;;;5.50;99.90;;;;;;5075423;28;20664;-80
2023/03/19 04:56:31;;;;;;;17.95;12.93;;;5.50;99.90;;;;;;5075534;28;20552;-81
2023/03/19 04:58:56;;;;;;;24.05;14.40;;;5.50;99.90;;;;;;5074019;28;20644;-81
2023/03/19 05:01:22;;;;;;;19.37;13.63;;;5.40;99.90;;;;;;5075532;28;20177;-81
2023/03/19 05:03:48;;;;;;;16.13;11.10;;;5.40;99.90;;;;;;5075098;28;20193;-75
2023/03/19 05:06:15;;;;;;;17.08;10.85;;;5.50;99.90;;;;;;5074915;28;20459;-80
2023/03/19 05:08:41;;;;;;;15.50;10.65;;;5.40;99.90;;;;;;5073743;28;20257;-81
2023/03/19 05:11:07;;;;;;;16.57;11.07;;;5.40;99.90;;;;;;5075246;28;20169;-81
2023/03/19 05:13:32;;;;;;;17.33;11.70;;;5.40;99.90;;;;;;5073663;28;20208;-80
2023/03/19 05:15:58;;;;;;;16.30;11.83;;;5.40;99.90;;;;;;5074984;28;20480;-75
2023/03/19 05:18:25;;;;;;;13.73;10.83;;;5.40;99.90;;;;;;5074833;28;20195;-81
2023/03/19 05:20:50;;;;;;;14.20;10.27;;;5.40;99.90;;;;;;5074975;28;20235;-75
2023/03/19 05:23:16;;;;;;;15.57;11.00;;;5.40;99.90;;;;;;5073467;28;20204;-75
2023/03/19 05:25:42;;;;;;;16.50;11.13;;;5.40;99.90;;;;;;5074893;28;20434;-81
2023/03/19 05:28:08;;;;;;;13.97;10.47;;;5.40;99.90;;;;;;5073371;28;20799;-75
2023/03/19 05:30:34;;;;;;;12.90;9.83;;;5.40;99.90;;;;;;5073381;28;20516;-81
2023/03/19 05:33:00;;;;;;;14.30;10.45;;;5.50;99.90;;;;;;5074630;28;20727;-75
2023/03/19 05:35:28;;;;;;;14.95;11.23;;;5.50;99.90;;;;;;5073193;28;20268;-81
2023/03/19 05:37:54;;;;;;;13.93;10.70;;;5.50;99.90;;;;;;5074427;28;20243;-80
2023/03/19 05:40:21;;;;;;;14.80;11.40;;;5.60;99.90;;;;;;5074278;28;20711;-80
2023/03/19 05:42:47;;;;;;;12.10;10.23;;;5.70;99.90;;;;;;5074299;28;20455;-81
2023/03/19 05:45:13;;;;;;;14.45;11.10;;;5.80;99.90;;;;;;5073169;28;20207;-75
2023/03/19 05:47:39;;;;;;;13.07;10.25;;;5.80;99.90;;;;;;5074213;28;20197;-75
2023/03/19 05:50:06;;;;;;;16.63;10.70;;;5.90;99.90;;;;;;5074257;28;20310;-80
2023/03/19 05:52:35;;;;;;;21.30;11.82;;;5.90;99.90;;;;;;5074096;28;20555;-79
2023/03/19 05:55:01;;;;;;;27.70;14.38;;;6.00;99.90;;;;;;5074150;28;20560;-80
2023/03/19 05:57:27;;;;;;;23.37;13.00;;;6.10;99.90;;;;;;5074070;28;20205;-80
2023/03/19 05:59:52;;;;;;;26.20;14.77;;;6.10;99.90;;;;;;5072726;28;20219;-75
2023/03/19 06:02:18;;;;;;;19.57;13.40;;;6.20;99.90;;;;;;5074122;28;20678;-75
2023/03/19 06:04:44;;;;;;;16.73;12.83;;;6.30;99.90;;;;;;5072725;28;20568;-80
2023/03/19 06:07:10;;;;;;;16.27;11.80;;;6.40;99.90;;;;;;5072891;28;20548;-75
2023/03/19 06:09:35;;;;;;;17.40;12.10;;;6.50;99.90;;;;;;5072669;28;20185;-80
2023/03/19 06:12:01;;;;;;;15.60;11.90;;;6.60;99.90;;;;;;5074227;28;20224;-81
2023/03/19 06:14:28;;;;;;;19.60;12.38;;;6.70;99.90;;;;;;5072497;28;20642;-81
2023/03/19 06:16:53;;;;;;;17.45;12.45;;;6.70;99.90;;;;;;5072597;28;20224;-75
2023/03/19 06:19:19;;;;;;;17.20;12.17;;;6.80;99.90;;;;;;5071765;28;20177;-75
2023/03/19 06:21:45;;;;;;;17.35;10.52;;;6.90;99.90;;;;;;5072556;28;20177;-81
2023/03/19 06:24:11;;;;;;;15.30;10.57;;;6.90;99.90;;;;;;5073806;28;20721;-75
2023/03/19 06:26:37;;;;;;;12.43;9.50;;;7.00;99.90;;;;;;5072494;28;20184;-81
2023/03/19 06:29:03;;;;;;;11.73;9.80;;;7.10;99.90;;;;;;5073771;28;20542;-75
2023/03/19 06:31:29;;;;;;;15.00;9.90;;;7.20;99.90;;;;;;5072653;28;20425;-75
2023/03/19 06:33:55;;;;;;;11.43;9.53;;;7.30;99.90;;;;;;5072271;28;20201;-80
2023/03/19 06:36:21;;;;;;;11.57;9.00;;;7.40;99.90;;;;;;5072413;28;20312;-80
2023/03/19 06:38:46;;;;;;;10.33;8.43;;;7.50;99.90;;;;;;5073618;28;20501;-75
2023/03/19 06:41:12;;;;;;;11.97;8.67;;;7.50;99.90;;;;;;5073999;28;20918;-80
2023/03/19 06:43:40;;;;;;;11.17;8.27;;;7.60;99.90;;;;;;5073560;28;20201;-75
2023/03/19 06:46:07;;;;;;;11.18;8.07;;;7.80;99.90;;;;;;5072182;28;20177;-81
2023/03/19 06:48:34;;;;;;;9.13;7.65;;;8.00;99.90;;;;;;5072239;28;20197;-75
2023/03/19 06:51:00;;;;;;;9.73;8.20;;;8.00;99.90;;;;;;5073907;28;20204;-75
2023/03/19 06:53:26;;;;;;;12.38;8.35;;;8.10;99.90;;;;;;5072205;28;20534;-75
2023/03/19 06:55:52;;;;;;;11.02;8.18;;;8.20;99.90;;;;;;5073591;28;20212;-75
2023/03/19 06:58:18;;;;;;;10.33;7.83;;;8.30;99.90;;;;;;5073568;28;20196;-76
2023/03/19 07:00:44;;;;;;;12.30;9.00;;;8.30;99.90;;;;;;5073579;28;20773;-75
2023/03/19 07:03:10;;;;;;;21.30;12.30;;;8.50;99.90;;;;;;5072044;28;20503;-75
2023/03/19 07:05:35;;;;;;;14.25;9.00;;;8.70;99.90;;;;;;5073578;28;20409;-75
2023/03/19 07:08:01;;;;;;;12.33;7.80;;;8.80;99.90;;;;;;5073224;28;20196;-81
2023/03/19 07:10:27;;;;;;;7.80;6.87;;;8.80;99.90;;;;;;5072139;28;20218;-75
2023/03/19 07:12:53;;;;;;;7.63;6.93;;;8.90;99.90;;;;;;5072016;28;20437;-75
2023/03/19 07:15:21;;;;;;;10.53;7.33;;;9.00;99.90;;;;;;5071821;28;20233;-75
2023/03/19 07:17:48;;;;;;;13.10;8.35;;;9.10;99.90;;;;;;5073161;28;20201;-80
2023/03/19 07:20:14;;;;;;;8.65;7.03;;;9.20;99.90;;;;;;5073195;28;20200;-81
2023/03/19 07:22:40;;;;;;;7.85;7.05;;;9.40;99.90;;;;;;5071804;28;20211;-75
2023/03/19 07:25:06;;;;;;;9.53;7.23;;;9.50;99.90;;;;;;5073240;28;20216;-75
2023/03/19 07:27:32;;;;;;;7.40;5.70;;;9.60;99.90;;;;;;5073061;28;20797;-75
2023/03/19 07:29:58;;;;;;;12.27;6.50;;;9.90;99.70;;;;;;5075006;28;20207;-77
2023/03/19 07:32:24;;;;;;;8.97;6.40;;;10.10;98.40;;;;;;5076909;28;20440;-82
2023/03/19 07:34:50;;;;;;;7.15;5.80;;;10.10;97.10;;;;;;5075304;28;20177;-76
2023/03/19 07:37:16;;;;;;;7.93;6.23;;;10.10;96.50;;;;;;5075556;28;20201;-81
2023/03/19 07:39:41;;;;;;;8.70;6.03;;;10.00;96.50;;;;;;5075495;28;20638;-75
2023/03/19 07:42:07;;;;;;;7.10;6.17;;;10.10;96.50;;;;;;5076597;28;20197;-75
2023/03/19 07:44:33;;;;;;;6.90;6.10;;;10.20;96.90;;;;;;5076755;28;20256;-79
2023/03/19 07:46:59;;;;;;;7.37;6.60;;;10.20;96.40;;;;;;5077164;28;20654;-75
2023/03/19 07:49:25;;;;;;;8.63;6.67;;;10.20;96.40;;;;;;5076606;28;20173;-78
2023/03/19 07:51:50;;;;;;;6.90;6.20;;;10.30;96.40;;;;;;5075438;28;20798;-81
2023/03/19 07:54:16;;;;;;;7.53;5.73;;;10.30;96.10;;;;;;5075172;28;20442;-76
2023/03/19 07:56:42;;;;;;;7.95;6.03;;;10.30;96.00;;;;;;5075174;28;20216;-81
2023/03/19 07:59:08;;;;;;;7.57;6.37;;;10.30;96.20;;;;;;5076533;28;20173;-75
2023/03/19 08:01:34;;;;;;;7.67;6.43;;;10.30;96.20;;;;;;5075259;28;20701;-82
2023/03/19 08:04:00;;;;;;;8.77;7.87;;;10.50;96.50;;;;;;5075052;28;20187;-81
2023/03/19 08:06:26;;;;;;;8.10;7.10;;;10.60;96.30;;;;;;5074936;28;20444;-80
2023/03/19 08:08:51;;;;;;;10.27;6.60;;;10.70;95.90;;;;;;5074942;28;20767;-75
2023/03/19 08:11:17;;;;;;;7.30;6.53;;;10.80;95.90;;;;;;5075820;28;20414;-82
2023/03/19 08:13:43;;;;;;;7.47;6.67;;;10.90;95.90;;;;;;5074796;28;20224;-76
2023/03/19 08:16:09;;;;;;;6.85;6.05;;;11.00;96.30;;;;;;5074592;28;20315;-81
2023/03/19 08:18:35;;;;;;;9.50;6.53;;;11.30;96.10;;;;;;5074767;28;20634;-81
2023/03/19 08:21:01;;;;;;;6.75;5.95;;;11.40;95.50;;;;;;5064714;28;20465;-76
2023/03/19 08:23:27;;;;;;;8.00;5.40;;;11.80;94.80;;;;;;5057316;28;20225;-76
2023/03/19 08:25:54;;;;;;;8.20;6.47;;;12.40;94.60;;;;;;5069337;28;20209;-81
2023/03/19 08:28:20;;;;;;;7.13;6.17;;;13.40;93.80;;;;;;5055166;28;20434;-76
2023/03/19 08:30:46;;;;;;;7.93;6.73;;;14.50;93.00;;;;;;5055824;28;20385;-82
2023/03/19 08:33:12;;;;;;;5.70;5.20;;;15.50;91.60;;;;;;5055477;28;20529;-76
2023/03/19 08:35:38;;;;;;;7.10;6.40;;;16.40;88.90;;;;;;5055616;28;20251;-77
2023/03/19 08:38:03;;;;;;;6.60;6.00;;;17.20;86.00;;;;;;5053883;28;20259;-77
2023/03/19 08:40:29;;;;;;;7.00;6.30;;;17.90;82.00;;;;;;5053104;28;20469;-76
2023/03/19 08:42:55;;;;;;;7.80;6.10;;;18.60;80.70;;;;;;5052914;28;20198;-77
2023/03/19 08:45:21;;;;;;;6.33;5.73;;;19.20;78.60;;;;;;5069045;28;20189;-82
2023/03/19 08:47:48;;;;;;;7.00;6.30;;;19.30;75.80;;;;;;5068776;28;20429;-77
2023/03/19 08:50:14;;;;;;;5.93;5.07;;;19.30;75.20;;;;;;5053386;28;20424;-78
2023/03/19 08:52:40;;;;;;;5.80;5.10;;;19.30;75.00;;;;;;5054231;28;20769;-82
2023/03/19 08:55:07;;;;;;;8.87;6.20;;;19.20;75.80;;;;;;5055451;28;20471;-77
2023/03/19 08:57:33;;;;;;;6.17;5.57;;;19.40;73.30;;;;;;5070651;28;20200;-82
2023/03/19 08:59:59;;;;;;;6.40;5.80;;;19.40;73.00;;;;;;5055406;28;20945;-77
2023/03/19 09:02:25;;;;;;;7.83;6.57;;;19.50;73.10;;;;;;5055169;28;20465;-77
2023/03/19 09:04:51;;;;;;;6.23;5.63;;;19.80;72.80;;;;;;5055127;28;20235;-82
2023/03/19 09:07:17;;;;;;;6.97;5.10;;;20.10;72.90;;;;;;5055108;28;20434;-77
2023/03/19 09:09:43;;;;;;;5.83;5.33;;;20.40;71.20;;;;;;5055035;28;20460;-77
2023/03/19 09:12:11;;;;;;;6.43;5.90;;;20.20;71.10;;;;;;5070244;28;20201;-77
2023/03/19 09:14:38;;;;;;;6.53;5.83;;;19.90;71.50;;;;;;5054841;28;20403;-77
2023/03/19 09:17:04;;;;;;;6.00;5.50;;;19.70;72.70;;;;;;5070125;28;20482;-77
2023/03/19 09:19:30;;;;;;;7.50;6.80;;;19.60;72.30;;;;;;5055040;28;20411;-76
2023/03/19 09:21:55;;;;;;;9.83;6.43;;;19.30;71.80;;;;;;5053676;28;20295;-81
2023/03/19 09:24:21;;;;;;;7.90;5.63;;;19.00;72.70;;;;;;5054825;28;20185;-80
2023/03/19 09:26:48;;;;;;;6.87;5.50;;;18.80;72.00;;;;;;5055045;28;20214;-78
2023/03/19 09:29:14;;;;;;;5.67;5.07;;;18.80;72.40;;;;;;5053513;28;20554;-81
2023/03/19 09:31:40;;;;;;;6.50;5.73;;;19.00;71.70;;;;;;5070216;28;20575;-82
2023/03/19 09:34:06;;;;;;;6.23;5.73;;;18.90;72.10;;;;;;5070116;28;20789;-81
2023/03/19 09:36:32;;;;;;;6.40;5.73;;;18.70;71.80;;;;;;5054935;28;20480;-77
2023/03/19 09:38:58;;;;;;;6.23;5.63;;;18.90;72.60;;;;;;5054724;28;20527;-80
2023/03/19 09:41:27;;;;;;;6.97;6.20;;;19.30;72.70;;;;;;5054754;28;20425;-82
2023/03/19 09:44:04;;;;;;;5.70;4.93;;;19.50;71.50;;;;;;5069797;28;20603;-78
2023/03/19 09:46:45;;;;;;;7.00;5.93;;;19.50;70.80;;;;;;5069955;28;20428;-81
2023/03/19 09:49:19;;;;;;;7.07;5.97;;;19.00;70.20;;;;;;5053159;28;20928;-81
2023/03/19 09:51:47;;;;;;;7.70;5.87;;;18.40;71.80;;;;;;5053000;28;20431;-77
2023/03/19 09:54:32;;;;;;;6.20;5.60;;;18.30;72.70;;;;;;5054302;28;20422;-81
2023/03/19 09:56:59;;;;;;;9.30;6.10;;;18.50;72.70;;;;;;5054042;28;20484;-77
2023/03/19 09:59:27;;;;;;;7.97;6.67;;;18.80;74.10;;;;;;5054257;28;20840;-77
2023/03/19 10:01:58;;;;;;;5.40;4.90;;;19.40;73.20;;;;;;5054465;28;20965;-81
2023/03/19 10:04:32;;;;;;;10.13;7.10;;;19.80;72.00;;;;;;5054134;28;20411;-82
2023/03/19 10:07:10;;;;;;;6.77;6.03;;;19.90;71.30;;;;;;5054421;28;20842;-80
2023/03/19 10:09:52;;;;;;;5.80;5.20;;;19.70;71.40;;;;;;5069568;28;20453;-77
2023/03/19 10:12:33;;;;;;;7.27;5.43;;;19.70;71.40;;;;;;5054008;28;20490;-80
2023/03/19 10:15:17;;;;;;;5.97;5.30;;;19.80;72.70;;;;;;5053759;28;20977;-83
2023/03/19 10:18:08;;;;;;;7.00;5.60;;;19.60;72.30;;;;;;5053893;28;20474;-82
2023/03/19 10:21:04;;;;;;;6.03;5.00;;;19.10;71.10;;;;;;5069373;28;20422;-81
2023/03/19 10:23:48;;;;;;;9.43;5.70;;;18.30;72.60;;;;;;5069128;28;20476;-81
2023/03/19 10:26:20;;;;;;;5.93;5.00;;;18.00;73.30;;;;;;5053897;28;20500;-82
2023/03/19 10:29:08;;;;;;;8.23;5.80;;;17.90;73.60;;;;;;5053739;28;20596;-81
2023/03/19 10:31:37;;;;;;;6.57;5.57;;;17.70;73.50;;;;;;5069216;28;20420;-82
2023/03/19 10:34:30;;;;;;;7.03;6.33;;;17.40;75.10;;;;;;5069069;28;20477;-77
2023/03/19 10:37:05;;;;;;;5.47;4.93;;;17.30;76.00;;;;;;5053885;28;20887;-77
2023/03/19 10:39:34;;;;;;;5.83;5.33;;;17.30;76.10;;;;;;5053698;28;20422;-81
2023/03/19 10:42:06;;;;;;;7.77;6.23;;;17.50;75.50;;;;;;5054078;28;20435;-80
2023/03/19 10:45:05;;;;;;;7.50;6.80;;;17.50;75.30;;;;;;5053635;28;20472;-77
2023/03/19 10:47:38;;;;;;;5.47;4.80;;;17.20;75.10;;;;;;5046029;28;20851;-76
2023/03/19 10:50:05;;;;;;;5.43;4.90;;;16.90;75.70;;;;;;5069020;28;20411;-82
2023/03/19 10:52:34;;;;;;;6.93;5.33;;;16.90;77.80;;;;;;5053313;28;20427;-81
2023/03/19 10:55:15;;;;;;;7.10;5.37;;;17.00;77.60;;;;;;5053379;28;20402;-81
2023/03/19 10:57:43;;;;;;;6.23;5.50;;;17.10;76.20;;;;;;5053344;28;20441;-81
2023/03/19 11:00:21;;;;;;;6.37;5.77;;;16.90;77.70;;;;;;5068649;28;20468;-80
2023/03/19 11:02:52;;;;;;;7.07;5.37;;;16.90;79.10;;;;;;5053326;28;20757;-79
2023/03/19 11:05:29;;;;;;;7.10;5.23;;;16.80;76.80;;;;;;5071447;28;20426;-77
2023/03/19 11:08:01;;;;;;;6.63;5.13;;;16.50;77.00;;;;;;5057308;28;20441;-81
2023/03/19 11:10:29;;;;;;;8.00;5.53;;;16.50;78.10;;;;;;5056150;28;20423;-77
2023/03/19 11:12:59;;;;;;;5.93;5.30;;;16.60;78.10;;;;;;5057136;28;20815;-80
2023/03/19 11:15:37;;;;;;;8.50;5.73;;;16.60;77.80;;;;;;5072294;28;20486;-81
2023/03/19 11:18:27;;;;;;;7.17;5.87;;;16.60;76.60;;;;;;5057238;28;20428;-80
2023/03/19 11:20:57;;;;;;;7.43;5.73;;;16.70;77.70;;;;;;5057296;28;20454;-76
2023/03/19 11:23:27;;;;;;;11.03;6.03;;;16.90;78.30;;;;;;5072529;28;20434;-80
2023/03/19 11:25:57;;;;;;;7.00;5.30;;;17.00;78.10;;;;;;5057321;28;20835;-80
2023/03/19 11:28:25;;;;;;;7.30;5.60;;;17.10;78.30;;;;;;5072476;28;20950;-81
2023/03/19 11:30:53;;;;;;;6.10;5.50;;;17.20;77.50;;;;;;5072331;28;20449;-80
2023/03/19 11:33:38;;;;;;;7.17;5.87;;;17.20;77.80;;;;;;5056987;28;20801;-81
2023/03/19 11:36:07;;;;;;;6.83;5.53;;;17.00;77.80;;;;;;5057280;28;20474;-77
2023/03/19 11:39:14;;;;;;;7.27;5.73;;;17.00;77.20;;;;;;5056709;28;20429;-77
2023/03/19 11:41:58;;;;;;;7.40;5.50;;;17.00;77.30;;;;;;5051920;28;20445;-82
2023/03/19 11:44:42;;;;;;;6.70;5.70;;;17.00;78.70;;;;;;5056827;28;20726;-77
2023/03/19 11:47:27;;;;;;;6.27;5.67;;;17.20;78.10;;;;;;5057206;28;20442;-77
2023/03/19 11:50:26;;;;;;;6.17;5.23;;;17.30;78.40;;;;;;5056601;28;20464;-81
2023/03/19 11:53:06;;;;;;;6.30;5.67;;;17.50;78.30;;;;;;5056584;28;20415;-77
2023/03/19 11:55:41;;;;;;;7.33;5.67;;;17.70;78.30;;;;;;5071955;28;20514;-81
2023/03/19 11:58:18;;;;;;;6.50;5.90;;;17.70;78.20;;;;;;5056561;28;20422;-76
2023/03/19 12:00:58;;;;;;;7.30;5.70;;;17.70;78.60;;;;;;5056282;28;20485;-77
2023/03/19 12:03:49;;;;;;;6.87;5.60;;;17.90;78.30;;;;;;5055167;28;20442;-81
2023/03/19 12:06:15;;;;;;;6.27;5.20;;;18.00;77.50;;;;;;5056903;28;20477;-77
2023/03/19 12:08:59;;;;;;;6.53;5.57;;;18.00;77.00;;;;;;5056178;28;20792;-82
2023/03/19 12:11:55;;;;;;;6.57;5.43;;;18.10;76.50;;;;;;5071884;28;20437;-82
2023/03/19 12:14:25;;;;;;;6.27;4.87;;;18.00;76.50;;;;;;5056277;28;20408;-81
2023/03/19 12:17:20;;;;;;;6.30;5.33;;;17.80;77.90;;;;;;5054852;28;20534;-81
2023/03/19 12:20:04;;;;;;;6.30;5.70;;;17.80;76.80;;;;;;5071594;28;20791;-81
2023/03/19 12:22:58;;;;;;;5.30;4.30;;;17.80;76.50;;;;;;5056161;28;20542;-77
2023/03/19 12:25:29;;;;;;;5.93;4.83;;;17.90;76.50;;;;;;5055990;28;20423;-77
2023/03/19 12:28:04;;;;;;;8.37;7.27;;;18.00;76.00;;;;;;5071237;28;20435;-80
2023/03/19 12:30:44;;;;;;;6.27;5.67;;;18.10;75.90;;;;;;5056051;28;20862;-77
2023/03/19 12:33:37;;;;;;;11.33;6.00;;;18.20;76.40;;;;;;5071231;28;20440;-77
2023/03/19 12:36:08;;;;;;;5.37;4.87;;;18.20;75.10;;;;;;5071143;28;20471;-77
2023/03/19 12:38:47;;;;;;;6.30;5.30;;;18.30;75.60;;;;;;5055604;28;20418;-81
2023/03/19 12:41:27;;;;;;;6.90;5.40;;;18.40;75.40;;;;;;5056007;28;20490;-80
2023/03/19 12:43:56;;;;;;;6.77;4.40;;;18.40;75.10;;;;;;5054582;28;20881;-80
2023/03/19 12:46:37;;;;;;;9.90;6.83;;;18.30;74.80;;;;;;5055952;28;20420;-81
2023/03/19 12:49:08;;;;;;;5.63;5.13;;;18.20;76.10;;;;;;5070981;28;20423;-77
2023/03/19 12:51:39;;;;;;;5.33;4.80;;;18.10;75.90;;;;;;5070993;28;20929;-81
2023/03/19 12:54:16;;;;;;;4.93;4.40;;;18.20;75.90;;;;;;5054231;28;20458;-77